sensor_id;sensor_type;location;lat;lon;timestamp;temperature;humidity
13521;DHT22;6832;51.186;3.236;2022-08-30T00:01:58;22.70;60.90
13521;DHT22;6832;51.186;3.236;2022-08-30T00:04:26;22.70;60.00
13521;DHT22;6832;51.186;3.236;2022-08-30T00:06:53;22.70;60.10
13521;DHT22;6832;51.186;3.236;2022-08-30T00:09:20;22.70;60.20
13521;DHT22;6832;51.186;3.236;2022-08-30T00:12:15;22.70;60.40
13521;DHT22;6832;51.186;3.236;2022-08-30T00:14:43;22.60;61.10
13521;DHT22;6832;51.186;3.236;2022-08-30T00:17:10;22.70;60.50
13521;DHT22;6832;51.186;3.236;2022-08-30T00:19:38;22.60;60.50
13521;DHT22;6832;51.186;3.236;2022-08-30T00:22:08;22.60;60.80
13521;DHT22;6832;51.186;3.236;2022-08-30T00:24:35;22.60;60.70
13521;DHT22;6832;51.186;3.236;2022-08-30T00:27:05;22.60;60.80
13521;DHT22;6832;51.186;3.236;2022-08-30T00:29:35;22.50;60.90
13521;DHT22;6832;51.186;3.236;2022-08-30T00:32:03;22.50;61.20
13521;DHT22;6832;51.186;3.236;2022-08-30T00:34:31;22.50;61.10
13521;DHT22;6832;51.186;3.236;2022-08-30T00:36:58;22.50;62.00
13521;DHT22;6832;51.186;3.236;2022-08-30T00:39:26;22.50;61.10
13521;DHT22;6832;51.186;3.236;2022-08-30T00:41:54;22.50;61.50
13521;DHT22;6832;51.186;3.236;2022-08-30T00:44:22;22.40;61.40
13521;DHT22;6832;51.186;3.236;2022-08-30T00:46:51;22.40;61.50
13521;DHT22;6832;51.186;3.236;2022-08-30T00:49:19;22.40;61.60
13521;DHT22;6832;51.186;3.236;2022-08-30T00:51:47;22.40;61.70
13521;DHT22;6832;51.186;3.236;2022-08-30T00:54:16;22.40;61.80
13521;DHT22;6832;51.186;3.236;2022-08-30T00:56:43;22.30;61.90
13521;DHT22;6832;51.186;3.236;2022-08-30T00:59:11;22.30;61.90
13521;DHT22;6832;51.186;3.236;2022-08-30T01:01:45;22.30;62.10
13521;DHT22;6832;51.186;3.236;2022-08-30T01:04:14;22.30;62.40
13521;DHT22;6832;51.186;3.236;2022-08-30T01:06:45;22.30;62.30
13521;DHT22;6832;51.186;3.236;2022-08-30T01:09:13;22.20;62.30
13521;DHT22;6832;51.186;3.236;2022-08-30T01:11:42;22.20;62.30
13521;DHT22;6832;51.186;3.236;2022-08-30T01:14:16;22.20;62.60
13521;DHT22;6832;51.186;3.236;2022-08-30T01:16:47;22.20;63.20
13521;DHT22;6832;51.186;3.236;2022-08-30T01:19:23;22.20;62.70
13521;DHT22;6832;51.186;3.236;2022-08-30T01:21:59;22.10;63.30
13521;DHT22;6832;51.186;3.236;2022-08-30T01:24:53;22.10;63.20
13521;DHT22;6832;51.186;3.236;2022-08-30T01:27:24;22.10;63.70
13521;DHT22;6832;51.186;3.236;2022-08-30T01:29:54;22.10;63.10
13521;DHT22;6832;51.186;3.236;2022-08-30T01:32:24;22.10;63.40
13521;DHT22;6832;51.186;3.236;2022-08-30T01:34:54;22.10;63.40
13521;DHT22;6832;51.186;3.236;2022-08-30T01:37:26;22.00;63.50
13521;DHT22;6832;51.186;3.236;2022-08-30T01:39:56;22.00;63.80
13521;DHT22;6832;51.186;3.236;2022-08-30T01:42:23;22.00;64.00
13521;DHT22;6832;51.186;3.236;2022-08-30T01:44:51;22.00;63.70
13521;DHT22;6832;51.186;3.236;2022-08-30T01:47:19;22.00;64.10
13521;DHT22;6832;51.186;3.236;2022-08-30T01:49:46;21.90;64.00
13521;DHT22;6832;51.186;3.236;2022-08-30T01:52:14;21.90;64.10
13521;DHT22;6832;51.186;3.236;2022-08-30T01:54:43;21.90;64.20
13521;DHT22;6832;51.186;3.236;2022-08-30T01:57:28;21.90;64.20
13521;DHT22;6832;51.186;3.236;2022-08-30T02:02:29;22.00;64.40
13521;DHT22;6832;51.186;3.236;2022-08-30T02:05:03;21.90;64.70
13521;DHT22;6832;51.186;3.236;2022-08-30T02:07:37;21.90;64.90
13521;DHT22;6832;51.186;3.236;2022-08-30T02:10:05;21.90;64.90
13521;DHT22;6832;51.186;3.236;2022-08-30T02:12:38;21.90;64.70
13521;DHT22;6832;51.186;3.236;2022-08-30T02:15:06;21.90;65.00
13521;DHT22;6832;51.186;3.236;2022-08-30T02:17:40;21.90;64.90
13521;DHT22;6832;51.186;3.236;2022-08-30T02:20:22;21.90;65.20
13521;DHT22;6832;51.186;3.236;2022-08-30T02:22:50;21.90;65.10
13521;DHT22;6832;51.186;3.236;2022-08-30T02:25:18;21.90;64.90
13521;DHT22;6832;51.186;3.236;2022-08-30T02:27:47;21.90;65.00
13521;DHT22;6832;51.186;3.236;2022-08-30T02:30:36;21.90;64.90
13521;DHT22;6832;51.186;3.236;2022-08-30T02:33:04;21.80;65.60
13521;DHT22;6832;51.186;3.236;2022-08-30T02:35:32;21.90;64.90
13521;DHT22;6832;51.186;3.236;2022-08-30T02:37:59;21.80;64.90
13521;DHT22;6832;51.186;3.236;2022-08-30T02:40:27;21.80;64.90
13521;DHT22;6832;51.186;3.236;2022-08-30T02:42:57;21.80;65.30
13521;DHT22;6832;51.186;3.236;2022-08-30T02:45:24;21.80;65.50
13521;DHT22;6832;51.186;3.236;2022-08-30T02:47:52;21.80;65.30
13521;DHT22;6832;51.186;3.236;2022-08-30T02:50:24;21.80;65.40
13521;DHT22;6832;51.186;3.236;2022-08-30T02:52:52;21.80;65.80
13521;DHT22;6832;51.186;3.236;2022-08-30T02:55:20;21.80;65.70
13521;DHT22;6832;51.186;3.236;2022-08-30T02:57:49;21.70;65.30
13521;DHT22;6832;51.186;3.236;2022-08-30T03:00:19;21.70;65.60
13521;DHT22;6832;51.186;3.236;2022-08-30T03:02:49;21.70;66.00
13521;DHT22;6832;51.186;3.236;2022-08-30T03:05:17;21.70;66.10
13521;DHT22;6832;51.186;3.236;2022-08-30T03:07:45;21.70;65.90
13521;DHT22;6832;51.186;3.236;2022-08-30T03:10:13;21.70;65.90
13521;DHT22;6832;51.186;3.236;2022-08-30T03:12:42;21.70;66.10
13521;DHT22;6832;51.186;3.236;2022-08-30T03:15:10;21.70;66.20
13521;DHT22;6832;51.186;3.236;2022-08-30T03:17:40;21.70;66.20
13521;DHT22;6832;51.186;3.236;2022-08-30T03:20:09;21.70;66.30
13521;DHT22;6832;51.186;3.236;2022-08-30T03:22:38;21.70;66.30
13521;DHT22;6832;51.186;3.236;2022-08-30T03:25:07;21.70;66.20
13521;DHT22;6832;51.186;3.236;2022-08-30T03:27:36;21.70;66.30
13521;DHT22;6832;51.186;3.236;2022-08-30T03:30:04;21.70;66.30
13521;DHT22;6832;51.186;3.236;2022-08-30T03:32:31;21.70;66.20
13521;DHT22;6832;51.186;3.236;2022-08-30T03:35:01;21.70;66.30
13521;DHT22;6832;51.186;3.236;2022-08-30T03:37:28;21.70;66.40
13521;DHT22;6832;51.186;3.236;2022-08-30T03:42:55;21.70;67.00
13521;DHT22;6832;51.186;3.236;2022-08-30T03:45:33;21.70;66.60
13521;DHT22;6832;51.186;3.236;2022-08-30T03:48:03;21.70;66.30
13521;DHT22;6832;51.186;3.236;2022-08-30T03:50:31;21.60;66.30
13521;DHT22;6832;51.186;3.236;2022-08-30T03:53:00;21.60;66.50
13521;DHT22;6832;51.186;3.236;2022-08-30T03:55:27;21.60;66.40
13521;DHT22;6832;51.186;3.236;2022-08-30T03:57:55;21.60;66.60
13521;DHT22;6832;51.186;3.236;2022-08-30T04:00:29;21.70;66.70
13521;DHT22;6832;51.186;3.236;2022-08-30T04:05:45;21.60;67.50
13521;DHT22;6832;51.186;3.236;2022-08-30T04:08:12;21.60;67.00
13521;DHT22;6832;51.186;3.236;2022-08-30T04:10:52;21.60;66.80
13521;DHT22;6832;51.186;3.236;2022-08-30T04:13:21;21.60;67.50
13521;DHT22;6832;51.186;3.236;2022-08-30T04:15:49;21.60;67.10
13521;DHT22;6832;51.186;3.236;2022-08-30T04:18:23;21.50;67.00
13521;DHT22;6832;51.186;3.236;2022-08-30T04:20:58;21.50;67.40
13521;DHT22;6832;51.186;3.236;2022-08-30T04:23:25;21.60;67.50
13521;DHT22;6832;51.186;3.236;2022-08-30T04:28:46;21.60;67.50
13521;DHT22;6832;51.186;3.236;2022-08-30T04:31:15;21.50;68.10
13521;DHT22;6832;51.186;3.236;2022-08-30T04:33:45;21.50;67.40
13521;DHT22;6832;51.186;3.236;2022-08-30T04:36:20;21.50;67.50
13521;DHT22;6832;51.186;3.236;2022-08-30T04:38:48;21.50;68.00
13521;DHT22;6832;51.186;3.236;2022-08-30T04:41:18;21.50;67.40
13521;DHT22;6832;51.186;3.236;2022-08-30T04:43:46;21.50;67.60
13521;DHT22;6832;51.186;3.236;2022-08-30T04:46:17;21.50;67.40
13521;DHT22;6832;51.186;3.236;2022-08-30T04:48:46;21.50;67.40
13521;DHT22;6832;51.186;3.236;2022-08-30T04:51:20;21.50;67.60
13521;DHT22;6832;51.186;3.236;2022-08-30T04:53:47;21.50;68.00
13521;DHT22;6832;51.186;3.236;2022-08-30T04:56:18;21.50;67.50
13521;DHT22;6832;51.186;3.236;2022-08-30T04:58:48;21.40;67.60
13521;DHT22;6832;51.186;3.236;2022-08-30T05:01:31;21.40;67.50
13521;DHT22;6832;51.186;3.236;2022-08-30T05:03:59;21.40;67.60
13521;DHT22;6832;51.186;3.236;2022-08-30T05:06:28;21.40;67.80
13521;DHT22;6832;51.186;3.236;2022-08-30T05:12:00;21.40;68.50
13521;DHT22;6832;51.186;3.236;2022-08-30T05:14:30;21.40;67.90
13521;DHT22;6832;51.186;3.236;2022-08-30T05:17:23;21.30;67.90
13521;DHT22;6832;51.186;3.236;2022-08-30T05:19:50;21.30;68.50
13521;DHT22;6832;51.186;3.236;2022-08-30T05:22:23;21.40;68.00
13521;DHT22;6832;51.186;3.236;2022-08-30T05:24:51;21.30;68.40
13521;DHT22;6832;51.186;3.236;2022-08-30T05:27:19;21.30;69.00
13521;DHT22;6832;51.186;3.236;2022-08-30T05:30:04;21.30;68.20
13521;DHT22;6832;51.186;3.236;2022-08-30T05:32:31;21.30;68.00
13521;DHT22;6832;51.186;3.236;2022-08-30T05:35:00;21.20;68.10
13521;DHT22;6832;51.186;3.236;2022-08-30T05:37:40;21.20;68.40
13521;DHT22;6832;51.186;3.236;2022-08-30T05:40:08;21.20;68.90
13521;DHT22;6832;51.186;3.236;2022-08-30T05:42:36;21.20;68.40
13521;DHT22;6832;51.186;3.236;2022-08-30T05:45:05;21.20;68.40
13521;DHT22;6832;51.186;3.236;2022-08-30T05:47:32;21.20;68.50
13521;DHT22;6832;51.186;3.236;2022-08-30T05:50:02;21.20;68.70
13521;DHT22;6832;51.186;3.236;2022-08-30T05:52:30;21.20;69.00
13521;DHT22;6832;51.186;3.236;2022-08-30T05:55:00;21.20;69.20
13521;DHT22;6832;51.186;3.236;2022-08-30T05:57:31;21.20;69.50
13521;DHT22;6832;51.186;3.236;2022-08-30T05:59:59;21.20;69.60
13521;DHT22;6832;51.186;3.236;2022-08-30T06:02:26;21.20;69.50
13521;DHT22;6832;51.186;3.236;2022-08-30T06:04:54;21.20;69.50
13521;DHT22;6832;51.186;3.236;2022-08-30T06:07:21;21.30;70.00
13521;DHT22;6832;51.186;3.236;2022-08-30T06:09:48;21.20;70.60
13521;DHT22;6832;51.186;3.236;2022-08-30T06:12:18;21.30;70.00
13521;DHT22;6832;51.186;3.236;2022-08-30T06:14:46;21.30;70.20
13521;DHT22;6832;51.186;3.236;2022-08-30T06:17:14;21.30;70.00
13521;DHT22;6832;51.186;3.236;2022-08-30T06:19:41;21.30;70.10
13521;DHT22;6832;51.186;3.236;2022-08-30T06:22:09;21.40;70.10
13521;DHT22;6832;51.186;3.236;2022-08-30T06:24:38;21.40;70.30
13521;DHT22;6832;51.186;3.236;2022-08-30T06:27:05;21.40;70.20
13521;DHT22;6832;51.186;3.236;2022-08-30T06:29:34;21.40;70.20
13521;DHT22;6832;51.186;3.236;2022-08-30T06:32:02;21.40;70.50
13521;DHT22;6832;51.186;3.236;2022-08-30T06:34:29;21.50;70.40
13521;DHT22;6832;51.186;3.236;2022-08-30T06:36:56;21.50;70.40
13521;DHT22;6832;51.186;3.236;2022-08-30T06:39:29;21.50;70.40
13521;DHT22;6832;51.186;3.236;2022-08-30T06:42:03;21.50;71.10
13521;DHT22;6832;51.186;3.236;2022-08-30T06:44:30;21.50;71.10
13521;DHT22;6832;51.186;3.236;2022-08-30T06:46:59;21.50;70.40
13521;DHT22;6832;51.186;3.236;2022-08-30T06:49:26;21.60;70.90
13521;DHT22;6832;51.186;3.236;2022-08-30T06:51:55;21.60;70.80
13521;DHT22;6832;51.186;3.236;2022-08-30T06:54:22;21.70;71.10
13521;DHT22;6832;51.186;3.236;2022-08-30T06:56:49;21.70;70.80
13521;DHT22;6832;51.186;3.236;2022-08-30T06:59:16;21.70;70.60
13521;DHT22;6832;51.186;3.236;2022-08-30T07:01:44;21.80;70.70
13521;DHT22;6832;51.186;3.236;2022-08-30T07:04:12;21.80;70.70
13521;DHT22;6832;51.186;3.236;2022-08-30T07:06:39;21.80;70.80
13521;DHT22;6832;51.186;3.236;2022-08-30T07:09:09;21.90;70.70
13521;DHT22;6832;51.186;3.236;2022-08-30T07:11:37;21.90;70.80
13521;DHT22;6832;51.186;3.236;2022-08-30T07:14:06;22.00;70.70
13521;DHT22;6832;51.186;3.236;2022-08-30T07:16:35;22.00;70.80
13521;DHT22;6832;51.186;3.236;2022-08-30T07:19:04;22.10;70.90
13521;DHT22;6832;51.186;3.236;2022-08-30T07:21:34;22.10;70.80
13521;DHT22;6832;51.186;3.236;2022-08-30T07:24:03;22.20;70.80
13521;DHT22;6832;51.186;3.236;2022-08-30T07:26:32;22.20;70.50
13521;DHT22;6832;51.186;3.236;2022-08-30T07:29:00;22.20;70.50
13521;DHT22;6832;51.186;3.236;2022-08-30T07:31:28;22.30;70.30
13521;DHT22;6832;51.186;3.236;2022-08-30T07:34:01;22.40;70.30
13521;DHT22;6832;51.186;3.236;2022-08-30T07:36:29;22.40;70.40
13521;DHT22;6832;51.186;3.236;2022-08-30T07:38:57;22.50;70.10
13521;DHT22;6832;51.186;3.236;2022-08-30T07:41:27;22.50;70.10
13521;DHT22;6832;51.186;3.236;2022-08-30T07:43:55;22.60;70.00
13521;DHT22;6832;51.186;3.236;2022-08-30T07:46:23;22.60;69.70
13521;DHT22;6832;51.186;3.236;2022-08-30T07:48:51;22.70;69.80
13521;DHT22;6832;51.186;3.236;2022-08-30T07:51:22;22.70;69.70
13521;DHT22;6832;51.186;3.236;2022-08-30T07:53:49;22.80;69.60
13521;DHT22;6832;51.186;3.236;2022-08-30T07:56:18;22.80;69.50
13521;DHT22;6832;51.186;3.236;2022-08-30T07:58:45;22.90;69.20
13521;DHT22;6832;51.186;3.236;2022-08-30T08:01:15;23.00;69.20
13521;DHT22;6832;51.186;3.236;2022-08-30T08:03:43;23.00;69.00
13521;DHT22;6832;51.186;3.236;2022-08-30T08:06:13;23.10;69.10
13521;DHT22;6832;51.186;3.236;2022-08-30T08:08:41;23.20;69.20
13521;DHT22;6832;51.186;3.236;2022-08-30T08:11:09;23.30;68.90
13521;DHT22;6832;51.186;3.236;2022-08-30T08:13:40;23.30;68.50
13521;DHT22;6832;51.186;3.236;2022-08-30T08:16:07;23.40;68.30
13521;DHT22;6832;51.186;3.236;2022-08-30T08:18:35;23.50;68.30
13521;DHT22;6832;51.186;3.236;2022-08-30T08:21:02;23.60;67.80
13521;DHT22;6832;51.186;3.236;2022-08-30T08:23:30;23.60;67.50
13521;DHT22;6832;51.186;3.236;2022-08-30T08:25:59;23.70;67.20
13521;DHT22;6832;51.186;3.236;2022-08-30T08:28:27;23.80;67.20
13521;DHT22;6832;51.186;3.236;2022-08-30T08:30:55;23.80;67.00
13521;DHT22;6832;51.186;3.236;2022-08-30T08:33:23;24.00;67.20
13521;DHT22;6832;51.186;3.236;2022-08-30T08:35:51;24.10;66.80
13521;DHT22;6832;51.186;3.236;2022-08-30T08:38:18;24.10;66.30
13521;DHT22;6832;51.186;3.236;2022-08-30T08:40:51;24.20;66.40
13521;DHT22;6832;51.186;3.236;2022-08-30T08:43:25;24.30;66.00
13521;DHT22;6832;51.186;3.236;2022-08-30T08:46:03;24.30;65.70
13521;DHT22;6832;51.186;3.236;2022-08-30T08:48:33;24.40;65.50
13521;DHT22;6832;51.186;3.236;2022-08-30T08:51:08;24.50;65.50
13521;DHT22;6832;51.186;3.236;2022-08-30T08:54:00;24.50;64.90
13521;DHT22;6832;51.186;3.236;2022-08-30T08:56:29;24.70;65.10
13521;DHT22;6832;51.186;3.236;2022-08-30T08:58:59;24.70;65.10
13521;DHT22;6832;51.186;3.236;2022-08-30T09:01:29;24.80;65.10
13521;DHT22;6832;51.186;3.236;2022-08-30T09:04:01;24.90;64.50
13521;DHT22;6832;51.186;3.236;2022-08-30T09:06:59;25.00;64.20
13521;DHT22;6832;51.186;3.236;2022-08-30T09:09:33;25.10;63.70
13521;DHT22;6832;51.186;3.236;2022-08-30T09:12:00;25.20;63.60
13521;DHT22;6832;51.186;3.236;2022-08-30T09:14:32;25.30;63.70
13521;DHT22;6832;51.186;3.236;2022-08-30T09:17:14;25.50;63.00
13521;DHT22;6832;51.186;3.236;2022-08-30T09:19:58;25.60;62.30
13521;DHT22;6832;51.186;3.236;2022-08-30T09:22:33;25.70;62.30
13521;DHT22;6832;51.186;3.236;2022-08-30T09:25:04;25.80;62.30
13521;DHT22;6832;51.186;3.236;2022-08-30T09:27:34;25.90;61.90
13521;DHT22;6832;51.186;3.236;2022-08-30T09:30:05;26.10;62.00
13521;DHT22;6832;51.186;3.236;2022-08-30T09:32:37;26.20;61.20
13521;DHT22;6832;51.186;3.236;2022-08-30T09:35:08;26.20;60.60
13521;DHT22;6832;51.186;3.236;2022-08-30T09:37:44;26.40;60.70
13521;DHT22;6832;51.186;3.236;2022-08-30T09:40:15;26.50;60.00
13521;DHT22;6832;51.186;3.236;2022-08-30T09:43:04;26.50;60.10
13521;DHT22;6832;51.186;3.236;2022-08-30T09:45:34;26.60;58.80
13521;DHT22;6832;51.186;3.236;2022-08-30T09:48:21;26.70;59.50
13521;DHT22;6832;51.186;3.236;2022-08-30T09:50:58;26.90;59.30
13521;DHT22;6832;51.186;3.236;2022-08-30T09:53:33;27.00;58.80
13521;DHT22;6832;51.186;3.236;2022-08-30T09:56:05;27.10;59.20
13521;DHT22;6832;51.186;3.236;2022-08-30T09:58:44;27.30;58.60
13521;DHT22;6832;51.186;3.236;2022-08-30T10:01:22;27.30;58.30
13521;DHT22;6832;51.186;3.236;2022-08-30T10:03:57;27.50;58.30
13521;DHT22;6832;51.186;3.236;2022-08-30T10:06:32;27.70;57.90
13521;DHT22;6832;51.186;3.236;2022-08-30T10:09:11;27.80;58.10
13521;DHT22;6832;51.186;3.236;2022-08-30T10:11:48;28.00;57.30
13521;DHT22;6832;51.186;3.236;2022-08-30T10:14:35;28.20;56.90
13521;DHT22;6832;51.186;3.236;2022-08-30T10:17:10;28.30;56.10
13521;DHT22;6832;51.186;3.236;2022-08-30T10:19:51;28.50;56.30
13521;DHT22;6832;51.186;3.236;2022-08-30T10:22:27;28.60;55.40
13521;DHT22;6832;51.186;3.236;2022-08-30T10:25:02;28.80;55.90
13521;DHT22;6832;51.186;3.236;2022-08-30T10:27:35;28.80;55.30
13521;DHT22;6832;51.186;3.236;2022-08-30T10:30:07;29.00;54.50
13521;DHT22;6832;51.186;3.236;2022-08-30T10:32:40;29.00;54.80
13521;DHT22;6832;51.186;3.236;2022-08-30T10:35:15;29.10;54.10
13521;DHT22;6832;51.186;3.236;2022-08-30T10:37:47;29.20;53.70
13521;DHT22;6832;51.186;3.236;2022-08-30T10:40:20;29.30;53.40
13521;DHT22;6832;51.186;3.236;2022-08-30T10:43:07;29.40;53.40
13521;DHT22;6832;51.186;3.236;2022-08-30T10:45:41;29.40;53.90
13521;DHT22;6832;51.186;3.236;2022-08-30T10:48:25;29.50;54.40
13521;DHT22;6832;51.186;3.236;2022-08-30T10:50:59;29.60;53.00
13521;DHT22;6832;51.186;3.236;2022-08-30T10:53:31;29.70;53.00
13521;DHT22;6832;51.186;3.236;2022-08-30T10:56:02;29.80;52.70
13521;DHT22;6832;51.186;3.236;2022-08-30T10:58:29;29.90;52.40
13521;DHT22;6832;51.186;3.236;2022-08-30T11:01:12;30.00;52.50
13521;DHT22;6832;51.186;3.236;2022-08-30T11:04:23;30.10;52.10
13521;DHT22;6832;51.186;3.236;2022-08-30T11:07:05;30.20;51.10
13521;DHT22;6832;51.186;3.236;2022-08-30T11:09:58;30.30;51.20
13521;DHT22;6832;51.186;3.236;2022-08-30T11:12:32;30.30;51.40
13521;DHT22;6832;51.186;3.236;2022-08-30T11:15:14;30.50;51.30
13521;DHT22;6832;51.186;3.236;2022-08-30T11:17:46;30.50;50.20
13521;DHT22;6832;51.186;3.236;2022-08-30T11:20:23;30.70;51.20
13521;DHT22;6832;51.186;3.236;2022-08-30T11:23:18;30.80;50.60
13521;DHT22;6832;51.186;3.236;2022-08-30T11:25:49;30.90;50.10
13521;DHT22;6832;51.186;3.236;2022-08-30T11:31:38;31.20;49.60
13521;DHT22;6832;51.186;3.236;2022-08-30T11:34:07;31.20;49.60
13521;DHT22;6832;51.186;3.236;2022-08-30T11:37:01;31.30;50.40
13521;DHT22;6832;51.186;3.236;2022-08-30T11:39:52;31.40;49.20
13521;DHT22;6832;51.186;3.236;2022-08-30T11:42:32;31.50;48.90
13521;DHT22;6832;51.186;3.236;2022-08-30T11:48:05;31.60;47.90
13521;DHT22;6832;51.186;3.236;2022-08-30T11:50:39;31.60;48.60
13521;DHT22;6832;51.186;3.236;2022-08-30T11:53:19;31.70;48.40
13521;DHT22;6832;51.186;3.236;2022-08-30T11:55:59;31.60;48.20
13521;DHT22;6832;51.186;3.236;2022-08-30T11:58:40;31.70;48.10
13521;DHT22;6832;51.186;3.236;2022-08-30T12:01:30;31.70;47.90
13521;DHT22;6832;51.186;3.236;2022-08-30T12:04:02;31.70;47.40
13521;DHT22;6832;51.186;3.236;2022-08-30T12:06:51;31.80;48.00
13521;DHT22;6832;51.186;3.236;2022-08-30T12:13:00;31.80;46.80
13521;DHT22;6832;51.186;3.236;2022-08-30T12:18:32;32.00;46.80
13521;DHT22;6832;51.186;3.236;2022-08-30T12:21:25;32.00;47.20
13521;DHT22;6832;51.186;3.236;2022-08-30T12:23:57;32.10;46.90
13521;DHT22;6832;51.186;3.236;2022-08-30T12:26:33;32.20;46.80
13521;DHT22;6832;51.186;3.236;2022-08-30T12:29:12;32.20;46.90
13521;DHT22;6832;51.186;3.236;2022-08-30T12:31:43;32.20;46.20
13521;DHT22;6832;51.186;3.236;2022-08-30T12:34:22;32.30;46.80
13521;DHT22;6832;51.186;3.236;2022-08-30T12:36:54;32.30;46.20
13521;DHT22;6832;51.186;3.236;2022-08-30T12:39:26;32.40;46.00
13521;DHT22;6832;51.186;3.236;2022-08-30T12:41:53;32.40;46.00
13521;DHT22;6832;51.186;3.236;2022-08-30T12:44:24;32.40;45.70
13521;DHT22;6832;51.186;3.236;2022-08-30T12:46:54;32.40;45.30
13521;DHT22;6832;51.186;3.236;2022-08-30T12:49:25;32.40;45.70
13521;DHT22;6832;51.186;3.236;2022-08-30T12:51:53;32.40;46.00
13521;DHT22;6832;51.186;3.236;2022-08-30T12:54:23;32.50;46.10
13521;DHT22;6832;51.186;3.236;2022-08-30T12:56:59;32.60;45.60
13521;DHT22;6832;51.186;3.236;2022-08-30T12:59:43;32.70;44.60
13521;DHT22;6832;51.186;3.236;2022-08-30T13:02:15;32.70;44.50
13521;DHT22;6832;51.186;3.236;2022-08-30T13:04:43;32.70;44.70
13521;DHT22;6832;51.186;3.236;2022-08-30T13:07:30;32.70;45.10
13521;DHT22;6832;51.186;3.236;2022-08-30T13:10:11;32.80;44.10
13521;DHT22;6832;51.186;3.236;2022-08-30T13:12:38;33.00;44.20
13521;DHT22;6832;51.186;3.236;2022-08-30T13:15:17;33.00;44.30
13521;DHT22;6832;51.186;3.236;2022-08-30T13:17:45;33.00;43.70
13521;DHT22;6832;51.186;3.236;2022-08-30T13:20:24;33.00;44.00
13521;DHT22;6832;51.186;3.236;2022-08-30T13:23:05;33.00;43.30
13521;DHT22;6832;51.186;3.236;2022-08-30T13:25:32;33.00;43.00
13521;DHT22;6832;51.186;3.236;2022-08-30T13:28:00;33.00;43.40
13521;DHT22;6832;51.186;3.236;2022-08-30T13:30:30;33.00;43.90
13521;DHT22;6832;51.186;3.236;2022-08-30T13:32:57;33.00;43.50
13521;DHT22;6832;51.186;3.236;2022-08-30T13:35:26;33.00;43.40
13521;DHT22;6832;51.186;3.236;2022-08-30T13:37:54;32.90;43.30
13521;DHT22;6832;51.186;3.236;2022-08-30T13:40:22;33.00;43.30
13521;DHT22;6832;51.186;3.236;2022-08-30T13:42:49;32.90;43.60
13521;DHT22;6832;51.186;3.236;2022-08-30T13:45:17;33.00;42.90
13521;DHT22;6832;51.186;3.236;2022-08-30T13:47:49;33.00;43.20
13521;DHT22;6832;51.186;3.236;2022-08-30T13:50:16;33.10;43.10
13521;DHT22;6832;51.186;3.236;2022-08-30T13:52:44;33.10;43.20
13521;DHT22;6832;51.186;3.236;2022-08-30T13:55:11;33.20;43.00
13521;DHT22;6832;51.186;3.236;2022-08-30T13:57:39;33.30;42.80
13521;DHT22;6832;51.186;3.236;2022-08-30T14:00:10;33.30;42.70
13521;DHT22;6832;51.186;3.236;2022-08-30T14:02:39;33.40;42.40
13521;DHT22;6832;51.186;3.236;2022-08-30T14:05:08;33.50;42.00
13521;DHT22;6832;51.186;3.236;2022-08-30T14:07:37;33.50;41.70
13521;DHT22;6832;51.186;3.236;2022-08-30T14:10:05;33.50;41.20
13521;DHT22;6832;51.186;3.236;2022-08-30T14:12:35;33.60;41.30
13521;DHT22;6832;51.186;3.236;2022-08-30T14:15:04;33.50;40.80
13521;DHT22;6832;51.186;3.236;2022-08-30T14:17:31;33.50;41.30
13521;DHT22;6832;51.186;3.236;2022-08-30T14:20:00;33.50;41.20
13521;DHT22;6832;51.186;3.236;2022-08-30T14:22:28;33.50;41.10
13521;DHT22;6832;51.186;3.236;2022-08-30T14:24:55;33.40;40.60
13521;DHT22;6832;51.186;3.236;2022-08-30T14:27:22;33.40;40.60
13521;DHT22;6832;51.186;3.236;2022-08-30T14:29:57;33.40;40.60
13521;DHT22;6832;51.186;3.236;2022-08-30T14:32:25;33.20;40.10
13521;DHT22;6832;51.186;3.236;2022-08-30T14:34:52;33.20;40.40
13521;DHT22;6832;51.186;3.236;2022-08-30T14:37:20;33.10;40.10
13521;DHT22;6832;51.186;3.236;2022-08-30T14:39:51;33.00;40.00
13521;DHT22;6832;51.186;3.236;2022-08-30T14:42:19;32.90;40.00
13521;DHT22;6832;51.186;3.236;2022-08-30T14:44:47;32.80;40.20
13521;DHT22;6832;51.186;3.236;2022-08-30T14:47:14;32.80;40.10
13521;DHT22;6832;51.186;3.236;2022-08-30T14:49:41;32.60;39.80
13521;DHT22;6832;51.186;3.236;2022-08-30T14:52:08;32.50;40.00
13521;DHT22;6832;51.186;3.236;2022-08-30T14:54:35;32.40;40.00
13521;DHT22;6832;51.186;3.236;2022-08-30T14:57:03;32.30;40.00
13521;DHT22;6832;51.186;3.236;2022-08-30T14:59:30;32.20;40.10
13521;DHT22;6832;51.186;3.236;2022-08-30T15:01:58;32.10;40.20
13521;DHT22;6832;51.186;3.236;2022-08-30T15:04:28;32.00;39.90
13521;DHT22;6832;51.186;3.236;2022-08-30T15:06:55;32.00;40.10
13521;DHT22;6832;51.186;3.236;2022-08-30T15:09:23;31.90;40.10
13521;DHT22;6832;51.186;3.236;2022-08-30T15:11:51;31.80;40.00
13521;DHT22;6832;51.186;3.236;2022-08-30T15:14:20;31.70;39.80
13521;DHT22;6832;51.186;3.236;2022-08-30T15:16:52;31.70;39.90
13521;DHT22;6832;51.186;3.236;2022-08-30T15:19:20;31.60;39.80
13521;DHT22;6832;51.186;3.236;2022-08-30T15:21:47;31.50;40.00
13521;DHT22;6832;51.186;3.236;2022-08-30T15:24:17;31.50;40.10
13521;DHT22;6832;51.186;3.236;2022-08-30T15:26:48;31.40;40.10
13521;DHT22;6832;51.186;3.236;2022-08-30T15:29:17;31.40;40.00
13521;DHT22;6832;51.186;3.236;2022-08-30T15:31:46;31.30;40.10
13521;DHT22;6832;51.186;3.236;2022-08-30T15:34:15;31.20;40.00
13521;DHT22;6832;51.186;3.236;2022-08-30T15:36:43;31.20;39.80
13521;DHT22;6832;51.186;3.236;2022-08-30T15:39:12;31.20;40.30
13521;DHT22;6832;51.186;3.236;2022-08-30T15:41:39;31.10;40.40
13521;DHT22;6832;51.186;3.236;2022-08-30T15:44:07;31.10;40.40
13521;DHT22;6832;51.186;3.236;2022-08-30T15:46:36;31.00;40.50
13521;DHT22;6832;51.186;3.236;2022-08-30T15:49:08;31.00;41.10
13521;DHT22;6832;51.186;3.236;2022-08-30T15:51:36;31.00;41.60
13521;DHT22;6832;51.186;3.236;2022-08-30T15:54:04;30.90;41.60
13521;DHT22;6832;51.186;3.236;2022-08-30T15:56:32;30.90;41.90
13521;DHT22;6832;51.186;3.236;2022-08-30T15:59:01;30.80;42.00
13521;DHT22;6832;51.186;3.236;2022-08-30T16:01:29;30.80;42.10
13521;DHT22;6832;51.186;3.236;2022-08-30T16:03:57;30.80;42.10
13521;DHT22;6832;51.186;3.236;2022-08-30T16:06:31;30.80;42.50
13521;DHT22;6832;51.186;3.236;2022-08-30T16:09:00;30.70;42.60
13521;DHT22;6832;51.186;3.236;2022-08-30T16:11:28;30.70;42.60
13521;DHT22;6832;51.186;3.236;2022-08-30T16:13:55;30.60;42.80
13521;DHT22;6832;51.186;3.236;2022-08-30T16:16:23;30.60;42.90
13521;DHT22;6832;51.186;3.236;2022-08-30T16:18:51;30.60;43.00
13521;DHT22;6832;51.186;3.236;2022-08-30T16:21:20;30.50;43.20
13521;DHT22;6832;51.186;3.236;2022-08-30T16:23:51;30.40;43.40
13521;DHT22;6832;51.186;3.236;2022-08-30T16:26:20;30.40;43.60
13521;DHT22;6832;51.186;3.236;2022-08-30T16:28:48;30.30;43.60
13521;DHT22;6832;51.186;3.236;2022-08-30T16:31:16;30.10;43.70
13521;DHT22;6832;51.186;3.236;2022-08-30T16:33:45;30.00;43.70
13521;DHT22;6832;51.186;3.236;2022-08-30T16:36:12;29.90;43.80
13521;DHT22;6832;51.186;3.236;2022-08-30T16:38:40;29.80;43.80